Freeman, West Virginia
Current Conditions -  °F | °C
As of 2:52 PM on Thursday 23 Oct 2014 (Local Time) from KBLF Reporting Station
Overcast Overcast  
Wind Chill: 50°   Ceiling: 1800
Heat Index: 50°   Visibility: 10mi
Dew Point: 38°   Wind: 9mph
Humidity: 63%   Direction: 300°WNW
Pressure: 30.12"   Gusts: NA
Location:  37.33°N, 81.31°W
Report Text: KBLF 231852Z AUTO 30008KT 10SM OVC018 10/03 A3012 RMK AO2 SLP196 T01000033
Loading
Personal Weather Stations






























Interactive Weather Map
Tropical Storm Tracking
New forecast layout! Learn more

10-Day Weather Forecast

Advertisements
Track Severe Weather on mobile